createdAt,value
2023-04-19T00:00:19.907Z,11.18
2023-04-19T00:02:49.194Z,10.75
2023-04-19T00:05:18.567Z,10.80
2023-04-19T00:07:47.132Z,11.06
2023-04-19T00:10:16.291Z,11.02
2023-04-19T00:12:43.988Z,11.07
2023-04-19T00:15:11.849Z,10.94
2023-04-19T00:17:39.726Z,10.84
2023-04-19T00:20:08.367Z,10.97
2023-04-19T00:22:36.192Z,11.26
2023-04-19T00:25:04.031Z,10.94
2023-04-19T00:27:33.445Z,11.07
2023-04-19T00:30:02.723Z,11.28
2023-04-19T00:32:30.533Z,11.24
2023-04-19T00:34:58.335Z,10.98
2023-04-19T00:37:26.079Z,11.09
2023-04-19T00:39:53.803Z,10.94
2023-04-19T00:42:21.511Z,10.83
2023-04-19T00:44:50.577Z,10.93
2023-04-19T00:47:18.591Z,10.87
2023-04-19T00:49:46.500Z,11.10
2023-04-19T00:52:14.215Z,10.79
2023-04-19T00:54:44.478Z,11.11
2023-04-19T00:57:12.278Z,10.75
2023-04-19T00:59:40.258Z,10.98
2023-04-19T01:02:10.414Z,11.34
2023-04-19T01:04:38.362Z,10.99
2023-04-19T01:07:07.028Z,10.88
2023-04-19T01:09:34.936Z,11.13
2023-04-19T01:12:03.346Z,11.29
2023-04-19T01:14:31.055Z,10.96
2023-04-19T01:16:58.887Z,10.89
2023-04-19T01:19:27.991Z,11.23
2023-04-19T01:21:56.399Z,11.46
2023-04-19T01:24:25.603Z,11.16
2023-04-19T01:26:53.415Z,11.38
2023-04-19T01:29:22.145Z,10.98
2023-04-19T01:31:53.635Z,11.09
2023-04-19T01:34:23.104Z,10.97
2023-04-19T01:36:50.893Z,11.02
2023-04-19T01:39:18.625Z,11.01
2023-04-19T01:41:47.801Z,11.11
2023-04-19T01:44:15.750Z,11.09
2023-04-19T01:46:43.794Z,11.22
2023-04-19T01:49:11.518Z,11.02
2023-04-19T01:51:39.552Z,11.13
2023-04-19T01:54:07.266Z,10.94
2023-04-19T01:56:35.052Z,11.17
2023-04-19T01:59:04.186Z,11.28
2023-04-19T02:01:31.941Z,11.33
2023-04-19T02:04:00.107Z,10.94
2023-04-19T02:06:27.941Z,11.06
2023-04-19T02:08:55.658Z,11.16
2023-04-19T02:11:23.378Z,10.93
2023-04-19T02:13:51.171Z,10.90
2023-04-19T02:16:20.342Z,10.67
2023-04-19T02:18:48.241Z,10.97
2023-04-19T02:21:16.019Z,10.67
2023-04-19T02:23:44.157Z,10.87
2023-04-19T02:26:13.023Z,10.65
2023-04-19T02:28:40.879Z,10.67
2023-04-19T02:31:08.900Z,10.46
2023-04-19T02:33:38.022Z,10.79
2023-04-19T02:36:06.019Z,10.62
2023-04-19T02:38:33.763Z,10.41
2023-04-19T02:41:04.345Z,10.96
2023-04-19T02:43:32.160Z,10.99
2023-04-19T02:45:59.851Z,10.91
2023-04-19T02:48:27.621Z,10.93
2023-04-19T02:50:56.826Z,10.71
2023-04-19T02:53:24.547Z,10.78
2023-04-19T02:55:52.332Z,10.93
2023-04-19T02:58:20.153Z,10.56
2023-04-19T03:00:47.901Z,11.06
2023-04-19T03:03:15.870Z,10.95
2023-04-19T03:05:43.679Z,10.75
2023-04-19T03:08:12.884Z,11.11
2023-04-19T03:10:40.734Z,10.52
2023-04-19T03:13:08.519Z,10.88
2023-04-19T03:15:36.255Z,10.55
2023-04-19T03:18:04.135Z,10.81
2023-04-19T03:20:32.072Z,10.79
2023-04-19T03:22:59.902Z,10.48
2023-04-19T03:25:29.120Z,10.55
2023-04-19T03:27:57.547Z,10.43
2023-04-19T03:30:25.340Z,10.72
2023-04-19T03:32:53.571Z,10.34
2023-04-19T03:35:22.369Z,10.44
2023-04-19T03:37:50.062Z,10.36
2023-04-19T03:40:18.042Z,10.07
2023-04-19T03:42:47.168Z,10.57
2023-04-19T03:45:14.936Z,10.51
2023-04-19T03:47:42.795Z,10.23
2023-04-19T03:50:11.385Z,10.06
2023-04-19T03:52:39.129Z,9.88
2023-04-19T03:55:07.687Z,9.63
2023-04-19T03:57:35.395Z,9.64
2023-04-19T04:00:07.106Z,9.48
2023-04-19T04:02:35.034Z,9.28
2023-04-19T04:05:03.038Z,9.38
2023-04-19T04:07:30.932Z,9.15
2023-04-19T04:09:58.952Z,9.25
2023-04-19T04:12:26.707Z,8.96
2023-04-19T04:14:54.365Z,9.01
2023-04-19T04:17:24.291Z,8.98
2023-04-19T04:19:52.112Z,8.97
2023-04-19T04:22:20.015Z,8.67
2023-04-19T04:24:49.228Z,9.03
2023-04-19T04:27:20.329Z,8.85
2023-04-19T04:29:49.487Z,8.87
2023-04-19T04:32:18.218Z,8.29
2023-04-19T04:34:47.325Z,8.41
2023-04-19T04:37:15.067Z,8.34
2023-04-19T04:39:43.000Z,8.18
2023-04-19T04:42:10.668Z,8.35
2023-04-19T04:44:38.879Z,8.07
2023-04-19T04:47:07.144Z,8.32
2023-04-19T04:49:34.931Z,8.18
2023-04-19T04:52:04.210Z,7.81
2023-04-19T04:54:31.922Z,8.45
2023-04-19T04:57:00.936Z,8.13
2023-04-19T04:59:28.776Z,7.97
2023-04-19T05:01:56.605Z,8.04
2023-04-19T05:04:24.471Z,7.96
2023-04-19T05:06:52.300Z,8.02
2023-04-19T05:09:21.503Z,8.28
2023-04-19T05:11:49.203Z,8.15
2023-04-19T05:14:17.033Z,7.82
2023-04-19T05:16:44.987Z,8.03
2023-04-19T05:19:12.816Z,8.00
2023-04-19T05:21:40.740Z,7.94
2023-04-19T05:24:10.035Z,7.81
2023-04-19T05:26:39.371Z,7.55
2023-04-19T05:29:07.118Z,7.62
2023-04-19T05:31:34.865Z,7.72
2023-04-19T05:34:02.606Z,7.61
2023-04-19T05:36:30.706Z,7.73
2023-04-19T05:38:58.389Z,7.67
2023-04-19T05:41:26.137Z,7.98
2023-04-19T05:43:55.190Z,7.82
2023-04-19T05:46:22.938Z,7.89
2023-04-19T05:48:50.695Z,8.13
2023-04-19T05:51:18.974Z,7.98
2023-04-19T05:53:47.095Z,7.89
2023-04-19T05:56:14.859Z,8.15
2023-04-19T05:58:42.601Z,8.36
2023-04-19T06:01:11.748Z,8.18
2023-04-19T06:03:39.686Z,8.33
2023-04-19T06:06:08.229Z,7.80
2023-04-19T06:08:36.115Z,8.69
2023-04-19T06:11:15.869Z,8.42
2023-04-19T06:13:51.395Z,9.40
2023-04-19T06:16:20.840Z,8.78
2023-04-19T06:18:48.597Z,8.78
2023-04-19T06:21:17.010Z,9.05
2023-04-19T06:23:44.741Z,9.40
2023-04-19T06:26:12.455Z,9.05
2023-04-19T06:28:40.230Z,9.27
2023-04-19T06:31:08.875Z,8.93
2023-04-19T06:33:38.129Z,8.88
2023-04-19T06:36:06.610Z,9.14
2023-04-19T06:38:34.330Z,8.82
2023-04-19T06:41:02.006Z,9.04
2023-04-19T06:43:29.753Z,9.38
2023-04-19T06:45:59.570Z,9.08
2023-04-19T06:48:27.788Z,9.29
2023-04-19T06:50:56.932Z,9.77
2023-04-19T06:53:25.057Z,9.37
2023-04-19T06:55:59.714Z,9.44
2023-04-19T06:58:27.641Z,9.31
2023-04-19T07:00:55.814Z,9.22
2023-04-19T07:03:23.663Z,9.51
2023-04-19T07:05:52.375Z,9.27
2023-04-19T07:08:21.448Z,9.44
2023-04-19T07:10:49.136Z,9.42
2023-04-19T07:13:16.846Z,9.13
2023-04-19T07:15:44.612Z,9.64
2023-04-19T07:18:14.915Z,9.44
2023-04-19T07:20:44.951Z,9.40
2023-04-19T07:23:12.957Z,9.61
2023-04-19T07:25:42.050Z,10.03
2023-04-19T07:28:09.819Z,10.04
2023-04-19T07:30:37.840Z,10.36
2023-04-19T07:33:05.957Z,10.23
2023-04-19T07:35:33.828Z,9.81
2023-04-19T07:38:01.849Z,10.30
2023-04-19T07:40:29.651Z,10.55
2023-04-19T07:42:58.792Z,10.94
2023-04-19T07:45:26.544Z,10.97
2023-04-19T07:47:54.215Z,10.17
2023-04-19T07:50:23.242Z,10.35
2023-04-19T07:52:51.155Z,10.92
2023-04-19T07:55:18.953Z,10.51
2023-04-19T07:57:48.435Z,10.50
2023-04-19T08:00:18.618Z,10.27
2023-04-19T08:02:47.022Z,10.68
2023-04-19T08:05:17.065Z,10.79
2023-04-19T08:07:44.960Z,10.75
2023-04-19T08:10:13.122Z,10.65
2023-04-19T08:12:50.662Z,11.49
2023-04-19T08:18:01.712Z,11.16
2023-04-19T08:20:29.498Z,11.21
2023-04-19T08:22:59.074Z,10.91
2023-04-19T08:25:28.672Z,11.02
2023-04-19T08:27:57.419Z,11.18
2023-04-19T08:30:25.307Z,11.28
2023-04-19T08:32:56.836Z,11.64
2023-04-19T08:35:25.320Z,11.58
2023-04-19T08:37:53.143Z,11.49
2023-04-19T08:40:20.967Z,11.33
2023-04-19T08:42:48.734Z,11.32
2023-04-19T08:45:27.816Z,11.30
2023-04-19T08:48:01.216Z,11.20
2023-04-19T08:53:09.046Z,11.92
2023-04-19T08:58:30.707Z,11.13
2023-04-19T09:01:06.239Z,11.70
2023-04-19T09:03:44.178Z,12.26
2023-04-19T09:06:19.298Z,12.07
2023-04-19T09:08:47.223Z,12.73
2023-04-19T09:11:14.952Z,12.55
2023-04-19T09:13:44.536Z,12.07
2023-04-19T09:16:24.786Z,11.99
2023-04-19T09:19:08.540Z,12.26
2023-04-19T09:21:47.830Z,11.81
2023-04-19T09:24:15.733Z,11.97
2023-04-19T09:26:55.007Z,12.51
2023-04-19T09:29:22.903Z,12.67
2023-04-19T09:31:58.337Z,12.82
2023-04-19T09:34:28.835Z,12.50
2023-04-19T09:37:04.757Z,12.56
2023-04-19T09:39:39.564Z,12.78
2023-04-19T09:42:07.432Z,12.98
2023-04-19T09:47:23.299Z,12.48
2023-04-19T09:50:18.759Z,12.49
2023-04-19T09:52:50.685Z,13.02
2023-04-19T09:57:49.797Z,12.81
2023-04-19T10:00:17.988Z,13.36
2023-04-19T10:02:48.780Z,13.08
2023-04-19T10:07:25.157Z,13.31
2023-04-19T10:12:45.546Z,13.01
2023-04-19T10:15:07.860Z,12.57
2023-04-19T10:17:36.039Z,13.47
2023-04-19T10:20:08.204Z,13.66
2023-04-19T10:22:38.762Z,13.48
2023-04-19T10:25:11.043Z,13.01
2023-04-19T10:27:38.816Z,12.85
2023-04-19T10:30:12.677Z,13.25
2023-04-19T10:32:41.709Z,13.84
2023-04-19T10:35:10.238Z,14.06
2023-04-19T10:37:42.852Z,13.57
2023-04-19T10:40:12.361Z,13.28
2023-04-19T10:43:16.520Z,13.19
2023-04-19T10:45:44.657Z,13.63
2023-04-19T10:48:34.156Z,14.08
2023-04-19T10:51:03.225Z,14.16
2023-04-19T10:53:51.804Z,13.71
2023-04-19T10:56:21.010Z,14.07
2023-04-19T10:59:22.871Z,14.42
2023-04-19T11:01:53.211Z,14.44
2023-04-19T11:04:27.446Z,14.23
2023-04-19T11:07:03.604Z,14.55
2023-04-19T11:09:35.255Z,14.45
2023-04-19T11:12:05.444Z,14.25
2023-04-19T11:14:36.258Z,14.40
2023-04-19T11:17:06.262Z,14.79
2023-04-19T11:19:34.059Z,14.01
2023-04-19T11:22:01.753Z,14.28
2023-04-19T11:24:29.498Z,14.58
2023-04-19T11:26:58.974Z,14.24
2023-04-19T11:29:26.734Z,14.76
2023-04-19T11:31:54.507Z,15.01
2023-04-19T11:34:24.422Z,14.93
2023-04-19T11:36:53.171Z,15.39
2023-04-19T11:39:21.530Z,15.58
2023-04-19T11:41:49.261Z,15.06
2023-04-19T11:44:20.921Z,15.06
2023-04-19T11:47:05.131Z,14.84
2023-04-19T11:49:34.040Z,14.89
2023-04-19T11:52:05.596Z,14.82
2023-04-19T11:54:34.458Z,14.96
2023-04-19T11:57:04.469Z,15.23
2023-04-19T11:59:34.676Z,14.80
2023-04-19T12:02:09.741Z,14.80
2023-04-19T12:04:38.713Z,14.78
2023-04-19T12:07:07.418Z,15.25
2023-04-19T12:09:36.890Z,14.65
2023-04-19T12:12:05.035Z,15.03
2023-04-19T12:14:34.342Z,14.55
2023-04-19T12:17:09.916Z,14.85
2023-04-19T12:19:38.720Z,14.78
2023-04-19T12:22:10.718Z,14.71
2023-04-19T12:24:38.916Z,14.36
2023-04-19T12:27:07.120Z,14.97
2023-04-19T12:29:36.696Z,15.00
2023-04-19T12:32:05.145Z,14.86
2023-04-19T12:34:32.904Z,15.00
2023-04-19T12:37:00.900Z,14.49
2023-04-19T12:39:29.305Z,15.10
2023-04-19T12:41:57.274Z,15.50
2023-04-19T12:44:25.029Z,14.93
2023-04-19T12:46:57.451Z,15.04
2023-04-19T12:49:25.458Z,15.05
2023-04-19T12:51:54.651Z,15.31
2023-04-19T12:54:24.359Z,15.62
2023-04-19T12:56:52.444Z,15.23
2023-04-19T12:59:20.375Z,15.64
2023-04-19T13:01:48.168Z,15.52
2023-04-19T13:04:17.674Z,15.14
2023-04-19T13:06:45.907Z,15.79
2023-04-19T13:09:15.034Z,15.61
2023-04-19T13:11:43.056Z,15.33
2023-04-19T13:14:10.811Z,15.61
2023-04-19T13:16:38.478Z,15.65
2023-04-19T13:19:06.374Z,15.47
2023-04-19T13:21:35.430Z,15.17
2023-04-19T13:24:03.209Z,15.72
2023-04-19T13:26:31.095Z,15.80
2023-04-19T13:28:58.784Z,15.58
2023-04-19T13:31:26.990Z,15.39
2023-04-19T13:33:55.070Z,15.40
2023-04-19T13:36:22.977Z,15.84
2023-04-19T13:38:52.021Z,15.35
2023-04-19T13:41:19.800Z,15.37
2023-04-19T13:43:47.840Z,15.01
2023-04-19T13:46:15.725Z,15.29
2023-04-19T13:48:43.404Z,15.88
2023-04-19T13:51:11.140Z,16.08
2023-04-19T13:53:40.780Z,15.56
2023-04-19T13:56:10.840Z,15.82
2023-04-19T13:58:38.771Z,16.03
2023-04-19T14:01:06.796Z,15.65
2023-04-19T14:03:34.824Z,15.76
2023-04-19T14:06:02.779Z,15.89
2023-04-19T14:08:30.469Z,15.83
2023-04-19T14:10:58.219Z,15.62
2023-04-19T14:13:27.992Z,15.78
2023-04-19T14:15:55.697Z,15.94
2023-04-19T14:18:23.412Z,16.45
2023-04-19T14:20:51.109Z,16.66
2023-04-19T14:23:18.873Z,15.47
2023-04-19T14:25:46.621Z,15.65
2023-04-19T14:28:14.409Z,15.95
2023-04-19T14:30:43.471Z,15.57
2023-04-19T14:33:11.391Z,15.73
2023-04-19T14:35:39.224Z,15.38
2023-04-19T14:38:06.879Z,15.85
2023-04-19T14:40:34.795Z,16.09
2023-04-19T14:43:02.572Z,16.20
2023-04-19T14:45:30.399Z,15.53
2023-04-19T14:47:59.581Z,15.68
2023-04-19T14:50:27.424Z,15.40
2023-04-19T14:52:55.209Z,15.98
2023-04-19T14:55:24.973Z,15.64
2023-04-19T14:57:52.682Z,16.00
2023-04-19T15:00:20.884Z,15.59
2023-04-19T15:02:48.713Z,15.46
2023-04-19T15:05:18.005Z,15.59
2023-04-19T15:07:45.813Z,15.50
2023-04-19T15:10:13.855Z,15.72
2023-04-19T15:12:41.512Z,15.75
2023-04-19T15:15:09.920Z,16.22
2023-04-19T15:17:37.769Z,15.71
2023-04-19T15:20:06.619Z,15.34
2023-04-19T15:22:35.837Z,14.92
2023-04-19T15:25:03.569Z,15.39
2023-04-19T15:27:31.395Z,15.34
2023-04-19T15:29:59.363Z,16.10
2023-04-19T15:32:29.029Z,15.61
2023-04-19T15:34:56.813Z,15.47
2023-04-19T15:37:24.584Z,15.70
2023-04-19T15:39:53.720Z,15.76
2023-04-19T15:42:21.483Z,15.54
2023-04-19T15:44:49.272Z,15.68
2023-04-19T15:47:17.298Z,15.23
2023-04-19T15:49:47.342Z,15.35
2023-04-19T15:52:15.257Z,15.56
2023-04-19T15:54:42.973Z,15.47
2023-04-19T15:57:12.084Z,15.32
2023-04-19T15:59:39.807Z,15.70
2023-04-19T16:02:08.046Z,15.75
2023-04-19T16:04:37.009Z,15.85
2023-04-19T16:07:04.949Z,15.74
2023-04-19T16:09:32.695Z,15.28
2023-04-19T16:12:00.843Z,15.29
2023-04-19T16:14:29.916Z,15.16
2023-04-19T16:16:57.903Z,15.10
2023-04-19T16:19:25.842Z,15.19
2023-04-19T16:21:53.588Z,15.72
2023-04-19T16:24:21.320Z,15.65
2023-04-19T16:26:49.121Z,15.64
2023-04-19T16:29:17.118Z,15.61
2023-04-19T16:31:47.573Z,15.43
2023-04-19T16:34:16.724Z,14.63
2023-04-19T16:36:45.547Z,15.11
2023-04-19T16:39:13.506Z,14.81
2023-04-19T16:41:41.257Z,14.70
2023-04-19T16:44:08.983Z,15.03
2023-04-19T16:46:36.835Z,15.12
2023-04-19T16:49:06.016Z,15.20
2023-04-19T16:51:33.762Z,15.48
2023-04-19T16:54:01.407Z,14.67
2023-04-19T16:56:29.159Z,14.93
2023-04-19T16:58:56.863Z,14.96
2023-04-19T17:01:24.918Z,14.89
2023-04-19T17:03:52.966Z,14.81
2023-04-19T17:06:22.115Z,13.92
2023-04-19T17:08:49.792Z,13.86
2023-04-19T17:11:17.499Z,14.21
2023-04-19T17:13:45.249Z,13.90
2023-04-19T17:16:13.047Z,13.87
2023-04-19T17:18:41.016Z,13.99
2023-04-19T17:21:08.858Z,14.32
2023-04-19T17:23:37.960Z,13.85
2023-04-19T17:26:06.010Z,13.69
2023-04-19T17:28:33.756Z,14.07
2023-04-19T17:31:01.622Z,13.76
2023-04-19T17:33:29.370Z,14.02
2023-04-19T17:35:57.158Z,13.66
2023-04-19T17:38:24.930Z,14.15
2023-04-19T17:40:54.033Z,13.77
2023-04-19T17:43:21.878Z,13.61
2023-04-19T17:45:49.532Z,13.24
2023-04-19T17:48:17.268Z,13.41
2023-04-19T17:50:45.018Z,13.17
2023-04-19T17:53:12.856Z,13.17
2023-04-19T17:55:40.729Z,12.79
2023-04-19T17:58:09.837Z,13.19
2023-04-19T18:00:37.687Z,13.17
2023-04-19T18:03:07.032Z,13.01
2023-04-19T18:05:34.794Z,12.85
2023-04-19T18:08:02.463Z,12.69
2023-04-19T18:10:30.547Z,12.82
2023-04-19T18:12:58.404Z,12.55
2023-04-19T18:15:27.420Z,12.88
2023-04-19T18:17:55.175Z,12.67
2023-04-19T18:20:22.954Z,12.41
2023-04-19T18:22:51.071Z,12.42
2023-04-19T18:25:19.224Z,12.20
2023-04-19T18:27:46.964Z,12.08
2023-04-19T18:30:14.972Z,12.20
2023-04-19T18:32:44.093Z,12.18
2023-04-19T18:35:12.386Z,12.04
2023-04-19T18:37:40.185Z,12.17
2023-04-19T18:40:09.196Z,12.35
2023-04-19T18:42:36.952Z,12.06
2023-04-19T18:45:05.193Z,11.86
2023-04-19T18:47:32.911Z,11.73
2023-04-19T18:50:05.232Z,11.97
2023-04-19T18:52:35.373Z,11.85
2023-04-19T18:55:03.373Z,11.41
2023-04-19T18:57:34.679Z,11.27
2023-04-19T19:00:05.448Z,11.15
2023-04-19T19:02:36.081Z,11.18
2023-04-19T19:05:07.363Z,11.30
2023-04-19T19:07:37.105Z,11.30
2023-04-19T19:10:15.946Z,11.15
2023-04-19T19:12:46.908Z,11.20
2023-04-19T19:15:15.018Z,11.22
2023-04-19T19:17:43.227Z,10.91
2023-04-19T19:20:13.203Z,10.90
2023-04-19T19:22:40.896Z,11.07
2023-04-19T19:25:09.225Z,10.87
2023-04-19T19:27:37.709Z,10.84
2023-04-19T19:30:07.682Z,10.88
2023-04-19T19:32:35.584Z,10.88
2023-04-19T19:35:06.426Z,10.78
2023-04-19T19:37:37.490Z,10.44
2023-04-19T19:40:07.281Z,10.76
2023-04-19T19:42:35.488Z,10.69
2023-04-19T19:45:04.172Z,10.52
2023-04-19T19:47:35.159Z,10.58
2023-04-19T19:52:35.960Z,10.55
2023-04-19T19:55:05.464Z,10.36
2023-04-19T20:00:23.004Z,10.31
2023-04-19T20:02:55.931Z,10.53
2023-04-19T20:05:24.627Z,10.34
2023-04-19T20:08:02.078Z,10.47
2023-04-19T20:10:34.238Z,10.13
2023-04-19T20:13:02.340Z,10.60
2023-04-19T20:15:31.011Z,10.42
2023-04-19T20:17:58.773Z,10.34
2023-04-19T20:20:26.619Z,10.47
2023-04-19T20:22:54.263Z,10.28
2023-04-19T20:25:22.068Z,10.53
2023-04-19T20:27:51.133Z,10.47
2023-04-19T20:30:18.913Z,10.16
2023-04-19T20:32:48.440Z,10.09
2023-04-19T20:35:16.270Z,10.20
2023-04-19T20:37:44.449Z,10.07
2023-04-19T20:40:14.530Z,10.08
2023-04-19T20:42:43.376Z,10.05
2023-04-19T20:45:14.286Z,10.02
2023-04-19T20:47:42.850Z,10.00
2023-04-19T20:50:11.314Z,10.08
2023-04-19T20:52:39.198Z,9.73
2023-04-19T20:55:07.999Z,10.01
2023-04-19T20:57:35.897Z,9.83
2023-04-19T21:00:04.823Z,9.73
2023-04-19T21:02:34.077Z,9.51
2023-04-19T21:05:01.899Z,9.92
2023-04-19T21:07:29.630Z,9.79
2023-04-19T21:09:57.340Z,9.72
2023-04-19T21:12:25.125Z,9.70
2023-04-19T21:14:53.544Z,9.74
2023-04-19T21:17:21.680Z,9.51
2023-04-19T21:19:50.807Z,9.66
2023-04-19T21:22:18.613Z,9.42
2023-04-19T21:24:46.402Z,9.76
2023-04-19T21:27:14.116Z,9.91
2023-04-19T21:29:41.838Z,9.50
2023-04-19T21:32:09.609Z,9.63
2023-04-19T21:34:38.298Z,9.74
2023-04-19T21:37:07.489Z,9.64
2023-04-19T21:39:35.180Z,9.59
2023-04-19T21:42:02.889Z,9.62
2023-04-19T21:44:30.613Z,9.29
2023-04-19T21:46:58.394Z,9.52
2023-04-19T21:49:26.214Z,9.43
2023-04-19T21:51:53.958Z,9.33
2023-04-19T21:54:32.815Z,9.41
2023-04-19T21:57:01.888Z,9.20
2023-04-19T21:59:29.702Z,9.30
2023-04-19T22:01:57.522Z,9.47
2023-04-19T22:04:25.321Z,9.27
2023-04-19T22:06:53.884Z,9.26
2023-04-19T22:09:22.907Z,9.13
2023-04-19T22:11:51.260Z,9.46
2023-04-19T22:14:18.928Z,9.30
2023-04-19T22:16:48.505Z,9.11
2023-04-19T22:19:16.865Z,9.15
2023-04-19T22:21:44.712Z,8.93
2023-04-19T22:24:12.453Z,8.82
2023-04-19T22:26:41.543Z,9.32
2023-04-19T22:29:09.377Z,9.10
2023-04-19T22:31:37.050Z,9.14
2023-04-19T22:34:04.866Z,9.61
2023-04-19T22:36:33.015Z,9.09
2023-04-19T22:39:00.730Z,9.19
2023-04-19T22:41:28.456Z,9.40
2023-04-19T22:43:57.539Z,9.21
2023-04-19T22:46:25.250Z,8.89
2023-04-19T22:48:52.934Z,9.05
2023-04-19T22:51:20.687Z,8.85
2023-04-19T22:53:48.367Z,8.67
2023-04-19T22:56:17.746Z,8.90
2023-04-19T22:58:45.589Z,8.59
2023-04-19T23:01:14.684Z,8.54
2023-04-19T23:03:42.422Z,8.46
2023-04-19T23:06:10.122Z,8.49
2023-04-19T23:08:40.309Z,8.70
2023-04-19T23:11:10.050Z,8.13
2023-04-19T23:13:38.125Z,8.38
2023-04-19T23:16:06.563Z,8.27
2023-04-19T23:18:36.157Z,8.45
2023-04-19T23:21:04.290Z,8.39
2023-04-19T23:23:31.936Z,8.27
2023-04-19T23:25:59.653Z,7.87
2023-04-19T23:28:27.391Z,8.38
2023-04-19T23:30:55.206Z,8.32
2023-04-19T23:33:22.917Z,8.07
2023-04-19T23:35:52.048Z,8.10
2023-04-19T23:38:20.320Z,8.22
2023-04-19T23:40:48.073Z,8.69
2023-04-19T23:43:15.803Z,8.51
2023-04-19T23:45:43.515Z,8.84
2023-04-19T23:48:11.297Z,8.58
2023-04-19T23:50:38.995Z,9.25
2023-04-19T23:53:08.141Z,9.06
2023-04-19T23:55:35.800Z,8.75
2023-04-19T23:58:03.555Z,8.84
